Time;durP1;ratioP1;P1;durP2;ratioP2;P2;SDS_P1;SDS_P2;PMS_P1;PMS_P2;Temp;Humidity;BMP_temperature;BMP_pressure;BME280_temperature;BME280_humidity;BME280_pressure;Samples;Min_cycle;Max_cycle;Signal;HPM_P1;HPM_P2
2021/09/07 00:02:05;;;;;;;9.75;7.65;;;16.10;88.70;;;;;;4901419;28;20503;-82
2021/09/07 00:04:31;;;;;;;11.98;8.35;;;16.20;88.10;;;;;;4910783;29;20720;-80
2021/09/07 00:06:58;;;;;;;11.18;7.53;;;16.20;87.80;;;;;;4955164;28;20035;-80
2021/09/07 00:09:23;;;;;;;10.00;6.93;;;16.20;87.70;;;;;;4920435;28;20066;-81
2021/09/07 00:11:49;;;;;;;9.95;7.93;;;16.10;87.80;;;;;;4917997;28;20480;-81
2021/09/07 00:14:14;;;;;;;9.88;7.40;;;16.10;87.80;;;;;;4928031;28;20030;-80
2021/09/07 00:16:40;;;;;;;14.38;8.68;;;16.00;87.80;;;;;;4927195;29;20047;-81
2021/09/07 00:19:05;;;;;;;10.70;7.85;;;16.10;88.00;;;;;;4908137;28;20029;-80
2021/09/07 00:21:31;;;;;;;11.55;8.98;;;16.00;87.80;;;;;;4929248;28;20455;-81
2021/09/07 00:23:56;;;;;;;8.50;7.20;;;16.00;87.90;;;;;;4937696;28;20394;-81
2021/09/07 00:26:22;;;;;;;12.15;7.68;;;15.90;88.00;;;;;;4930120;28;20028;-80
2021/09/07 00:28:47;;;;;;;9.93;7.82;;;15.90;88.30;;;;;;4951095;28;20038;-80
2021/09/07 00:31:13;;;;;;;12.65;7.88;;;16.00;87.90;;;;;;4940384;28;20111;-80
2021/09/07 00:33:38;;;;;;;12.50;8.07;;;16.00;88.10;;;;;;4937431;28;20054;-80
2021/09/07 00:36:04;;;;;;;10.93;7.82;;;16.00;87.90;;;;;;4934922;28;20035;-80
2021/09/07 00:38:30;;;;;;;10.15;7.40;;;15.80;88.00;;;;;;4931458;28;20042;-80
2021/09/07 00:40:55;;;;;;;12.70;8.20;;;15.80;88.30;;;;;;4956018;28;20379;-82
2021/09/07 00:43:21;;;;;;;14.07;9.15;;;15.90;88.70;;;;;;4926552;28;20035;-79
2021/09/07 00:45:46;;;;;;;20.10;9.02;;;15.90;89.20;;;;;;4947167;28;20549;-80
2021/09/07 00:48:12;;;;;;;9.38;7.30;;;15.90;88.50;;;;;;4945203;28;20110;-80
2021/09/07 00:50:39;;;;;;;10.77;7.95;;;15.80;88.50;;;;;;4919464;28;20040;-80
2021/09/07 00:53:04;;;;;;;14.45;8.15;;;15.90;89.00;;;;;;4935176;28;20031;-80
2021/09/07 00:55:30;;;;;;;11.35;8.18;;;15.80;88.70;;;;;;4928151;28;20380;-80
2021/09/07 00:57:56;;;;;;;8.75;6.95;;;15.80;89.30;;;;;;4945995;28;20047;-82
2021/09/07 01:00:22;;;;;;;10.98;7.35;;;15.80;89.90;;;;;;4943459;28;20030;-81
2021/09/07 01:02:47;;;;;;;14.90;9.45;;;15.90;90.10;;;;;;4956056;28;20038;-80
2021/09/07 01:05:13;;;;;;;12.27;8.90;;;15.80;88.80;;;;;;4943419;28;20114;-80
2021/09/07 01:07:39;;;;;;;10.95;7.90;;;15.80;89.10;;;;;;4935425;28;20072;-80
2021/09/07 01:10:06;;;;;;;12.80;8.07;;;15.80;89.30;;;;;;4935653;28;20039;-80
2021/09/07 01:12:32;;;;;;;10.05;7.35;;;15.70;89.60;;;;;;4939414;28;20046;-80
2021/09/07 01:14:57;;;;;;;11.85;7.63;;;15.80;90.50;;;;;;4925642;28;20035;-80
2021/09/07 01:17:23;;;;;;;12.57;8.07;;;15.80;90.00;;;;;;4933532;28;20074;-81
2021/09/07 01:19:49;;;;;;;11.02;8.02;;;15.60;90.00;;;;;;4929923;28;20114;-81
2021/09/07 01:22:19;;;;;;;14.50;9.02;;;15.60;90.20;;;;;;4943602;28;20394;-80
2021/09/07 01:24:45;;;;;;;14.55;9.13;;;15.50;89.60;;;;;;4931233;28;20495;-79
2021/09/07 01:27:11;;;;;;;10.93;7.13;;;15.40;90.00;;;;;;4929692;28;20042;-82
2021/09/07 01:29:38;;;;;;;12.00;9.18;;;15.40;90.00;;;;;;4930277;28;20039;-80
2021/09/07 01:32:04;;;;;;;12.15;8.65;;;15.30;90.20;;;;;;4941866;28;20475;-79
2021/09/07 01:34:30;;;;;;;10.80;7.90;;;15.30;90.00;;;;;;4936755;28;20050;-79
2021/09/07 01:36:56;;;;;;;11.68;7.15;;;15.20;90.00;;;;;;4928042;28;20114;-83
2021/09/07 01:39:24;;;;;;;12.98;9.57;;;15.20;90.20;;;;;;4947867;28;20050;-79
2021/09/07 01:41:50;;;;;;;15.50;10.10;;;15.10;90.00;;;;;;4943620;28;20045;-81
2021/09/07 01:44:19;;;;;;;10.73;8.40;;;15.00;89.70;;;;;;4932520;28;20400;-80
2021/09/07 01:46:45;;;;;;;12.25;8.13;;;15.00;90.00;;;;;;4933169;28;20035;-79
2021/09/07 01:49:12;;;;;;;10.93;8.05;;;15.00;90.10;;;;;;4936056;28;20032;-80
2021/09/07 01:51:38;;;;;;;10.82;7.57;;;15.00;90.40;;;;;;4941386;28;20038;-80
2021/09/07 01:54:04;;;;;;;13.90;9.10;;;15.00;90.20;;;;;;4943707;28;20034;-80
2021/09/07 01:56:30;;;;;;;18.38;10.57;;;14.90;90.10;;;;;;4924736;28;20046;-80
2021/09/07 01:58:55;;;;;;;15.68;11.82;;;14.80;90.10;;;;;;4942211;28;20086;-81
2021/09/07 02:01:21;;;;;;;19.55;10.88;;;14.70;93.00;;;;;;4927961;28;20035;-80
2021/09/07 02:03:46;;;;;;;16.25;10.27;;;14.80;90.50;;;;;;4949264;28;20019;-80
2021/09/07 02:06:12;;;;;;;18.50;11.85;;;14.70;90.30;;;;;;4943411;28;20034;-81
2021/09/07 02:08:38;;;;;;;19.73;12.15;;;14.60;90.90;;;;;;4944970;28;20045;-81
2021/09/07 02:11:03;;;;;;;20.50;11.25;;;14.50;90.90;;;;;;4922794;29;20035;-79
2021/09/07 02:13:29;;;;;;;19.25;11.93;;;14.40;91.20;;;;;;4926470;28;20046;-80
2021/09/07 02:15:54;;;;;;;13.13;9.02;;;14.40;90.60;;;;;;4955510;28;20039;-80
2021/09/07 02:18:20;;;;;;;16.63;10.98;;;14.40;90.50;;;;;;4943339;28;20037;-80
2021/09/07 02:20:45;;;;;;;14.48;11.73;;;14.50;90.80;;;;;;4941524;28;20039;-79
2021/09/07 02:23:11;;;;;;;17.08;12.18;;;14.40;90.50;;;;;;4929601;28;20074;-81
2021/09/07 02:25:36;;;;;;;18.58;11.88;;;14.40;90.60;;;;;;4915805;29;20087;-79
2021/09/07 02:28:03;;;;;;;13.75;10.63;;;14.30;90.50;;;;;;4916233;29;20042;-80
2021/09/07 02:30:28;;;;;;;16.23;10.93;;;14.30;90.40;;;;;;4900344;29;21190;-79
2021/09/07 02:32:56;;;;;;;12.45;8.70;;;14.40;90.30;;;;;;4917983;29;20044;-79
2021/09/07 02:35:22;;;;;;;13.15;9.43;;;14.40;90.20;;;;;;4914580;29;20027;-80
2021/09/07 02:37:47;;;;;;;19.25;10.82;;;14.30;90.20;;;;;;4896578;29;20043;-81
2021/09/07 02:40:13;;;;;;;17.67;12.07;;;14.30;90.50;;;;;;4911330;29;20028;-79
2021/09/07 02:42:39;;;;;;;16.45;11.90;;;14.10;90.80;;;;;;4917332;29;20042;-81
2021/09/07 02:45:05;;;;;;;16.80;11.52;;;14.10;91.80;;;;;;4913539;28;20040;-79
2021/09/07 02:47:30;;;;;;;15.32;11.23;;;14.00;91.70;;;;;;4923152;29;20040;-80
2021/09/07 02:49:56;;;;;;;19.13;11.77;;;13.90;91.60;;;;;;4935945;28;20050;-80
2021/09/07 02:52:21;;;;;;;17.40;11.98;;;14.00;91.70;;;;;;4932089;28;20034;-79
2021/09/07 02:54:47;;;;;;;17.60;12.32;;;14.00;91.70;;;;;;4932562;29;20110;-79
2021/09/07 02:57:12;;;;;;;21.85;11.63;;;14.10;93.40;;;;;;4909679;28;20106;-79
2021/09/07 02:59:38;;;;;;;20.40;12.00;;;14.00;91.90;;;;;;4932102;28;20082;-79
2021/09/07 03:02:03;;;;;;;16.67;12.98;;;14.00;92.00;;;;;;4927444;29;20447;-79
2021/09/07 03:04:29;;;;;;;17.58;11.98;;;14.00;92.60;;;;;;4928897;28;21322;-80
2021/09/07 03:06:55;;;;;;;19.92;13.93;;;13.90;93.10;;;;;;4936649;28;20061;-79
2021/09/07 03:09:20;;;;;;;14.80;10.38;;;14.00;93.00;;;;;;4933982;28;20054;-79
2021/09/07 03:11:46;;;;;;;18.17;11.90;;;14.10;91.60;;;;;;4924110;28;20410;-80
2021/09/07 03:14:11;;;;;;;16.42;10.52;;;14.10;91.20;;;;;;4943815;28;20023;-80
2021/09/07 03:16:37;;;;;;;18.13;12.30;;;14.10;91.00;;;;;;4935293;28;20043;-80
2021/09/07 03:19:03;;;;;;;22.50;12.27;;;14.20;91.20;;;;;;4935245;28;20046;-79
2021/09/07 03:21:29;;;;;;;17.20;12.70;;;14.00;92.10;;;;;;4928741;28;20038;-79
2021/09/07 03:23:54;;;;;;;19.73;12.73;;;13.90;93.20;;;;;;4926237;28;20031;-79
2021/09/07 03:26:20;;;;;;;19.08;11.90;;;13.90;92.70;;;;;;4932742;28;20496;-79
2021/09/07 03:28:46;;;;;;;19.30;12.50;;;14.00;93.20;;;;;;4926306;28;20146;-80
2021/09/07 03:31:11;;;;;;;24.65;13.85;;;14.00;92.60;;;;;;4924901;28;20028;-80
2021/09/07 03:33:37;;;;;;;18.67;12.65;;;13.90;92.80;;;;;;4924288;28;20475;-79
2021/09/07 03:36:02;;;;;;;19.30;13.13;;;13.90;92.40;;;;;;4929619;28;20027;-80
2021/09/07 03:38:28;;;;;;;22.63;14.68;;;13.90;92.70;;;;;;4930461;28;20023;-79
2021/09/07 03:40:54;;;;;;;18.80;12.65;;;13.90;94.80;;;;;;4947028;28;20458;-79
2021/09/07 03:43:19;;;;;;;14.77;9.88;;;14.00;93.00;;;;;;4938458;28;20444;-80
2021/09/07 03:45:45;;;;;;;16.67;10.48;;;14.10;92.00;;;;;;4936642;28;20483;-80
2021/09/07 03:48:10;;;;;;;20.45;11.68;;;14.30;92.20;;;;;;4942211;28;20036;-80
2021/09/07 03:50:36;;;;;;;20.50;12.48;;;14.30;91.60;;;;;;4934606;28;20127;-79
2021/09/07 03:53:02;;;;;;;19.20;13.27;;;14.20;92.50;;;;;;4935096;28;20043;-80
2021/09/07 03:55:27;;;;;;;13.63;10.35;;;14.10;92.70;;;;;;4947641;28;20035;-80
2021/09/07 03:57:53;;;;;;;14.77;10.40;;;14.20;92.30;;;;;;4927724;28;20038;-80
2021/09/07 04:00:19;;;;;;;16.98;11.02;;;14.30;92.70;;;;;;4961224;28;20031;-81
2021/09/07 04:02:44;;;;;;;20.52;12.05;;;14.40;92.00;;;;;;4927185;28;20035;-80
2021/09/07 04:05:10;;;;;;;14.63;10.23;;;14.20;95.10;;;;;;4934085;28;20031;-79
2021/09/07 04:07:37;;;;;;;18.17;11.80;;;14.20;93.10;;;;;;4945825;28;20453;-80
2021/09/07 04:10:03;;;;;;;21.02;12.23;;;14.20;94.60;;;;;;4923553;28;20048;-80
2021/09/07 04:12:29;;;;;;;15.55;12.30;;;14.20;94.40;;;;;;4916302;28;20055;-80
2021/09/07 04:14:54;;;;;;;17.17;11.00;;;14.20;92.80;;;;;;4918885;28;20070;-80
2021/09/07 04:17:21;;;;;;;15.32;9.68;;;14.40;92.20;;;;;;4938243;28;20042;-80
2021/09/07 04:19:46;;;;;;;22.33;12.60;;;14.40;91.90;;;;;;4940625;28;20027;-80
2021/09/07 04:22:12;;;;;;;19.60;12.38;;;14.40;91.70;;;;;;4938255;28;20034;-80
2021/09/07 04:24:37;;;;;;;23.23;14.15;;;14.40;95.90;;;;;;4934131;28;20027;-80
2021/09/07 04:27:03;;;;;;;22.55;12.65;;;14.30;95.30;;;;;;4933539;28;20511;-80
2021/09/07 04:29:28;;;;;;;17.33;12.23;;;14.30;94.40;;;;;;4932651;28;20519;-80
2021/09/07 04:31:54;;;;;;;21.88;12.77;;;14.30;92.70;;;;;;4917349;28;20020;-83
2021/09/07 04:34:20;;;;;;;20.15;13.73;;;14.40;93.10;;;;;;4928771;28;20031;-80
2021/09/07 04:36:45;;;;;;;24.00;14.57;;;14.30;93.30;;;;;;4918394;28;20034;-80
2021/09/07 04:39:11;;;;;;;14.90;10.15;;;14.40;95.10;;;;;;4932747;28;20227;-80
2021/09/07 04:41:36;;;;;;;17.30;10.95;;;14.30;93.00;;;;;;4929619;28;20036;-80
2021/09/07 04:44:02;;;;;;;19.67;13.10;;;14.30;93.00;;;;;;4924369;28;20035;-80
2021/09/07 04:46:28;;;;;;;23.73;14.18;;;14.30;93.10;;;;;;4913426;29;20031;-81
2021/09/07 04:48:56;;;;;;;21.15;14.70;;;14.30;92.80;;;;;;4940064;28;20142;-80
2021/09/07 04:51:22;;;;;;;22.15;14.48;;;14.20;94.60;;;;;;4942997;28;20026;-79
2021/09/07 04:53:48;;;;;;;21.33;14.07;;;14.30;94.40;;;;;;4942294;28;20031;-81
2021/09/07 04:56:15;;;;;;;21.05;13.45;;;14.40;94.40;;;;;;4926406;28;20637;-83
2021/09/07 04:58:40;;;;;;;24.42;15.52;;;14.40;94.30;;;;;;4927586;28;20576;-81
2021/09/07 05:01:06;;;;;;;19.30;13.60;;;14.40;93.90;;;;;;4923530;28;20121;-80
2021/09/07 05:03:32;;;;;;;19.73;14.15;;;14.40;94.10;;;;;;4907832;28;20031;-80
2021/09/07 05:05:57;;;;;;;23.33;15.52;;;14.30;93.60;;;;;;4953477;28;20070;-81
2021/09/07 05:08:23;;;;;;;18.50;12.80;;;14.30;93.70;;;;;;4923706;28;20035;-81
2021/09/07 05:10:48;;;;;;;15.77;10.95;;;14.40;94.10;;;;;;4946288;28;20114;-79
2021/09/07 05:13:14;;;;;;;18.98;11.10;;;14.40;93.50;;;;;;4942575;28;20152;-79
2021/09/07 05:15:47;;;;;;;15.95;10.88;;;14.50;93.40;;;;;;4929727;28;20092;-78
2021/09/07 05:18:13;;;;;;;16.35;10.70;;;14.50;93.30;;;;;;4944410;28;20137;-79
2021/09/07 05:20:38;;;;;;;18.98;11.95;;;14.50;93.20;;;;;;4927153;28;20158;-78
2021/09/07 05:23:04;;;;;;;18.08;11.57;;;14.50;93.40;;;;;;4932236;28;20109;-79
2021/09/07 05:25:30;;;;;;;19.08;11.73;;;14.50;93.30;;;;;;4952674;28;20027;-79
2021/09/07 05:27:56;;;;;;;22.90;13.57;;;14.50;93.10;;;;;;4946109;28;20037;-79
2021/09/07 05:30:24;;;;;;;21.40;13.82;;;14.60;94.40;;;;;;4937972;28;20394;-80
2021/09/07 05:32:49;;;;;;;21.70;13.98;;;14.60;93.30;;;;;;4938074;28;20039;-78
2021/09/07 05:35:15;;;;;;;15.32;10.75;;;14.60;93.30;;;;;;4922739;28;20027;-79
2021/09/07 05:37:41;;;;;;;23.05;13.35;;;14.60;93.10;;;;;;4958985;28;20335;-79
2021/09/07 05:40:12;;;;;;;23.25;14.32;;;14.60;93.40;;;;;;4945058;28;20076;-79
2021/09/07 05:42:42;;;;;;;16.38;10.27;;;14.60;94.90;;;;;;4945971;28;20038;-79
2021/09/07 05:45:09;;;;;;;12.15;9.32;;;14.70;93.90;;;;;;4945841;28;22849;-79
2021/09/07 05:47:34;;;;;;;17.27;12.38;;;14.80;92.50;;;;;;4946584;28;20832;-79
2021/09/07 05:50:00;;;;;;;13.07;9.02;;;14.80;94.20;;;;;;4912569;28;20055;-79
2021/09/07 05:52:26;;;;;;;21.85;12.88;;;14.80;93.80;;;;;;4929092;28;20054;-80
2021/09/07 05:54:51;;;;;;;14.40;10.68;;;14.90;93.90;;;;;;4937821;28;20039;-79
2021/09/07 05:57:17;;;;;;;11.80;8.48;;;14.90;93.70;;;;;;4943668;28;20055;-79
2021/09/07 05:59:46;;;;;;;11.43;8.88;;;15.00;92.20;;;;;;4934423;28;20079;-80
2021/09/07 06:02:12;;;;;;;14.45;9.43;;;15.10;92.40;;;;;;4923169;28;20035;-79
2021/09/07 06:04:37;;;;;;;17.50;11.65;;;15.10;92.50;;;;;;4926778;29;20087;-79
2021/09/07 06:07:03;;;;;;;20.20;10.52;;;15.10;93.10;;;;;;4927993;28;20034;-80
2021/09/07 06:09:29;;;;;;;12.40;8.27;;;15.20;93.10;;;;;;4935940;28;20028;-80
2021/09/07 06:11:54;;;;;;;16.15;11.43;;;15.20;92.60;;;;;;4930614;28;20067;-80
2021/09/07 06:14:20;;;;;;;18.33;10.70;;;15.30;92.70;;;;;;4926117;28;20029;-81
2021/09/07 06:16:49;;;;;;;17.77;11.63;;;15.40;92.70;;;;;;4925336;28;20806;-81
2021/09/07 06:19:14;;;;;;;17.05;12.25;;;15.40;92.90;;;;;;4918934;28;20164;-81
2021/09/07 06:21:40;;;;;;;21.35;13.18;;;15.40;93.40;;;;;;4925080;28;20046;-80
2021/09/07 06:24:05;;;;;;;19.98;12.38;;;15.50;93.90;;;;;;4938250;28;20122;-79
2021/09/07 06:26:33;;;;;;;21.45;13.98;;;15.50;94.10;;;;;;4900287;28;20024;-80
2021/09/07 06:28:59;;;;;;;14.38;10.15;;;15.50;94.10;;;;;;4937908;28;20677;-81
2021/09/07 06:31:24;;;;;;;12.82;8.40;;;15.60;93.90;;;;;;4919472;28;20106;-80
2021/09/07 06:33:50;;;;;;;20.45;11.40;;;15.70;92.50;;;;;;4920226;28;20762;-82
2021/09/07 06:36:15;;;;;;;20.58;12.90;;;15.80;93.20;;;;;;4917549;28;20482;-80
2021/09/07 06:38:41;;;;;;;20.70;13.93;;;15.90;93.20;;;;;;4910858;28;20023;-81
2021/09/07 06:41:07;;;;;;;14.88;9.57;;;15.90;93.40;;;;;;4928044;28;20027;-80
2021/09/07 06:43:35;;;;;;;12.85;8.77;;;16.00;93.10;;;;;;4930197;28;20429;-80
2021/09/07 06:46:00;;;;;;;15.63;10.27;;;16.10;93.20;;;;;;4943425;28;20039;-80
2021/09/07 06:48:26;;;;;;;19.60;11.63;;;16.20;93.10;;;;;;4931957;28;20049;-82
2021/09/07 06:50:51;;;;;;;18.48;13.07;;;16.30;93.00;;;;;;4926331;28;20105;-82
2021/09/07 06:53:17;;;;;;;22.05;12.77;;;16.40;93.20;;;;;;4933928;28;20650;-80
2021/09/07 06:55:43;;;;;;;19.83;12.95;;;16.40;93.00;;;;;;4937076;28;20054;-80
2021/09/07 06:58:09;;;;;;;16.85;12.93;;;16.60;93.00;;;;;;4921832;28;20041;-81
2021/09/07 07:00:40;;;;;;;19.40;12.55;;;16.60;92.80;;;;;;4928687;28;20035;-80
2021/09/07 07:03:06;;;;;;;14.70;10.10;;;16.80;93.20;;;;;;4939807;29;20036;-81
2021/09/07 07:05:33;;;;;;;22.92;13.65;;;16.90;92.80;;;;;;4928758;28;20032;-80
2021/09/07 07:07:58;;;;;;;11.75;9.13;;;17.00;92.80;;;;;;4925261;28;20031;-80
2021/09/07 07:10:24;;;;;;;26.05;14.05;;;17.10;92.70;;;;;;4936637;28;20046;-80
2021/09/07 07:12:49;;;;;;;18.27;12.95;;;17.30;93.30;;;;;;4961117;28;20538;-81
2021/09/07 07:15:15;;;;;;;20.95;13.80;;;17.40;93.40;;;;;;4933125;28;20482;-80
2021/09/07 07:17:42;;;;;;;22.40;14.18;;;17.50;93.40;;;;;;4945272;28;21704;-79
2021/09/07 07:20:08;;;;;;;21.40;13.43;;;17.60;93.80;;;;;;4948791;28;20108;-80
2021/09/07 07:22:44;;;;;;;19.13;13.65;;;17.80;94.10;;;;;;4958431;28;20098;-80
2021/09/07 07:25:10;;;;;;;25.65;15.00;;;18.00;94.40;;;;;;4923542;28;20391;-80
2021/09/07 07:27:39;;;;;;;20.35;13.73;;;18.20;94.70;;;;;;4926624;28;20035;-81
2021/09/07 07:30:11;;;;;;;20.30;13.90;;;18.40;95.00;;;;;;4951281;28;20491;-80
2021/09/07 07:32:36;;;;;;;19.92;14.30;;;18.60;95.30;;;;;;4904077;28;20047;-82
2021/09/07 07:35:04;;;;;;;19.60;12.52;;;18.80;95.40;;;;;;4950552;28;20035;-82
2021/09/07 07:37:29;;;;;;;20.02;11.65;;;18.80;94.50;;;;;;4942469;28;20031;-81
2021/09/07 07:39:55;;;;;;;17.55;12.50;;;18.90;94.50;;;;;;4942555;28;20027;-80
2021/09/07 07:42:20;;;;;;;26.77;14.73;;;19.00;94.80;;;;;;4924472;28;20039;-81
2021/09/07 07:44:47;;;;;;;20.60;13.85;;;19.10;95.10;;;;;;4944333;28;20066;-81
2021/09/07 07:47:13;;;;;;;20.17;13.05;;;19.30;94.80;;;;;;4942054;28;20488;-80
2021/09/07 07:49:38;;;;;;;21.13;13.90;;;19.40;94.60;;;;;;4934139;29;20039;-81
2021/09/07 07:52:11;;;;;;;19.23;12.82;;;19.50;94.60;;;;;;4952119;28;20030;-81
2021/09/07 07:54:36;;;;;;;17.77;12.55;;;19.60;94.60;;;;;;4931319;28;20031;-81
2021/09/07 07:57:02;;;;;;;19.65;13.07;;;19.70;94.40;;;;;;4932367;28;20024;-81
2021/09/07 07:59:28;;;;;;;19.10;12.85;;;19.90;94.50;;;;;;4928035;29;20051;-82
2021/09/07 08:01:53;;;;;;;20.30;13.05;;;20.00;94.50;;;;;;4929034;28;20098;-82
2021/09/07 08:04:19;;;;;;;19.45;13.77;;;20.10;94.50;;;;;;4934884;28;20352;-82
2021/09/07 08:06:52;;;;;;;19.15;13.35;;;20.30;94.40;;;;;;4940826;28;20043;-82
2021/09/07 08:09:31;;;;;;;20.42;13.85;;;20.40;94.20;;;;;;4916547;28;20031;-81
2021/09/07 08:12:04;;;;;;;20.48;13.43;;;20.60;94.60;;;;;;4924135;28;20089;-82
2021/09/07 08:14:37;;;;;;;24.52;14.43;;;20.80;94.30;;;;;;4929766;28;20503;-83
2021/09/07 08:17:02;;;;;;;21.30;14.00;;;20.90;94.40;;;;;;4958593;28;20035;-82
2021/09/07 08:19:28;;;;;;;23.50;14.90;;;21.10;94.50;;;;;;4942494;28;20061;-81
2021/09/07 08:21:54;;;;;;;26.65;15.18;;;21.30;94.40;;;;;;4944021;28;20035;-82
2021/09/07 08:24:27;;;;;;;20.50;14.23;;;21.40;94.30;;;;;;4924981;28;20475;-79
2021/09/07 08:26:53;;;;;;;23.63;15.35;;;21.60;94.40;;;;;;4938106;28;20461;-81
2021/09/07 08:29:18;;;;;;;21.25;14.65;;;21.70;94.50;;;;;;4944377;28;20039;-82
2021/09/07 08:31:44;;;;;;;21.08;15.40;;;21.90;94.20;;;;;;4944016;28;20446;-80
2021/09/07 08:34:10;;;;;;;22.48;15.27;;;22.00;94.20;;;;;;4925475;28;20635;-82
2021/09/07 08:36:36;;;;;;;20.98;13.60;;;22.10;94.30;;;;;;4937566;28;20042;-80
2021/09/07 08:39:04;;;;;;;20.58;15.32;;;22.20;93.50;;;;;;4942837;28;20026;-80
2021/09/07 08:41:29;;;;;;;25.50;14.52;;;22.30;93.80;;;;;;4932998;28;20029;-81
2021/09/07 08:43:56;;;;;;;16.42;11.77;;;22.40;93.70;;;;;;4959217;28;20035;-81
2021/09/07 08:46:21;;;;;;;20.17;11.90;;;22.60;93.50;;;;;;4955202;28;20533;-81
2021/09/07 08:48:47;;;;;;;18.38;12.88;;;22.70;93.60;;;;;;4904395;28;20464;-81
2021/09/07 08:51:26;;;;;;;20.30;13.52;;;22.90;93.40;;;;;;4935794;28;20090;-80
2021/09/07 08:54:01;;;;;;;17.70;12.38;;;23.10;93.40;;;;;;4949711;28;20034;-81
2021/09/07 08:56:48;;;;;;;24.92;13.90;;;23.20;93.40;;;;;;4945973;28;20031;-81
2021/09/07 08:59:14;;;;;;;20.95;14.63;;;23.50;93.20;;;;;;4951072;28;20039;-81
2021/09/07 09:01:51;;;;;;;20.75;13.75;;;23.60;93.00;;;;;;4929027;28;20037;-81
2021/09/07 09:04:32;;;;;;;23.65;14.95;;;23.90;93.00;;;;;;4956469;28;20038;-83
2021/09/07 09:07:25;;;;;;;18.38;13.07;;;24.00;92.70;;;;;;4941817;28;20113;-82
2021/09/07 09:09:51;;;;;;;14.27;10.48;;;24.10;92.40;;;;;;4929419;28;20027;-81
2021/09/07 09:12:36;;;;;;;19.67;12.50;;;24.40;90.60;;;;;;4936782;28;20040;-81
2021/09/07 09:15:21;;;;;;;21.85;12.98;;;24.40;92.50;;;;;;4918789;28;20038;-81
2021/09/07 09:17:47;;;;;;;21.17;13.10;;;24.80;91.90;;;;;;4916861;29;20497;-81
2021/09/07 09:20:15;;;;;;;21.73;13.38;;;25.10;91.80;;;;;;4915260;29;20285;-81
2021/09/07 09:22:51;;;;;;;16.25;10.20;;;25.30;91.20;;;;;;4909696;28;20039;-81
2021/09/07 09:25:19;;;;;;;27.35;12.57;;;25.50;89.90;;;;;;4915520;29;20031;-81
2021/09/07 09:28:15;;;;;;;20.23;12.02;;;25.50;90.50;;;;;;4928825;29;20372;-81
2021/09/07 09:30:45;;;;;;;16.70;11.52;;;25.90;89.20;;;;;;4924130;28;20541;-82
2021/09/07 09:33:12;;;;;;;13.48;9.88;;;26.00;90.10;;;;;;4928578;28;20120;-81
2021/09/07 09:35:51;;;;;;;15.95;8.80;;;26.20;89.30;;;;;;4922117;28;20066;-82
2021/09/07 09:38:17;;;;;;;14.73;10.23;;;26.00;89.10;;;;;;4923034;28;20038;-81
2021/09/07 09:40:43;;;;;;;14.15;8.95;;;26.20;85.80;;;;;;4942168;28;20565;-81
2021/09/07 09:43:25;;;;;;;15.95;8.75;;;26.30;88.30;;;;;;4944718;28;20038;-82
2021/09/07 09:45:52;;;;;;;12.48;8.73;;;26.60;87.50;;;;;;4945546;28;20047;-80
2021/09/07 09:48:27;;;;;;;14.40;9.23;;;26.80;87.10;;;;;;4918287;29;20040;-81
2021/09/07 09:50:54;;;;;;;11.93;8.05;;;27.00;83.70;;;;;;4940188;28;20443;-82
2021/09/07 09:53:20;;;;;;;13.68;9.25;;;27.00;83.30;;;;;;4911779;28;20031;-81
2021/09/07 09:55:47;;;;;;;14.20;9.25;;;27.20;83.10;;;;;;4921401;28;20062;-82
2021/09/07 09:58:14;;;;;;;13.27;9.23;;;27.30;80.60;;;;;;4940181;28;20125;-82
2021/09/07 10:00:39;;;;;;;11.25;8.68;;;27.40;79.60;;;;;;4938564;28;20050;-82
2021/09/07 10:03:08;;;;;;;12.48;8.23;;;27.40;81.10;;;;;;4943737;28;20038;-83
2021/09/07 10:05:34;;;;;;;10.65;8.05;;;27.50;78.30;;;;;;4931314;28;20101;-83
2021/09/07 10:08:00;;;;;;;13.50;9.23;;;27.40;81.30;;;;;;4926788;28;20496;-84
2021/09/07 10:10:26;;;;;;;9.45;7.68;;;27.40;80.20;;;;;;4949804;28;20031;-83
2021/09/07 10:12:58;;;;;;;14.52;8.40;;;27.50;78.80;;;;;;4945784;28;20891;-83
2021/09/07 10:23:56;;;;;;;12.65;9.05;;;27.80;77.90;;;;;;4931898;28;20066;-84
2021/09/07 10:26:37;;;;;;;14.80;8.88;;;27.90;77.30;;;;;;4954422;28;20099;-83
2021/09/07 10:29:15;;;;;;;13.35;9.00;;;28.10;73.60;;;;;;4968984;28;20038;-85
2021/09/07 10:31:50;;;;;;;16.92;9.68;;;28.00;75.70;;;;;;4918323;28;20038;-86
2021/09/07 10:34:16;;;;;;;13.32;9.55;;;28.00;75.80;;;;;;4934548;28;20039;-87
2021/09/07 10:36:59;;;;;;;14.10;9.35;;;27.80;76.20;;;;;;4929685;28;20537;-87
2021/09/07 10:39:35;;;;;;;10.57;7.93;;;27.80;75.70;;;;;;4915535;28;20487;-87
2021/09/07 10:42:02;;;;;;;13.00;8.93;;;27.70;75.30;;;;;;4944979;28;20818;-88
2021/09/07 10:44:57;;;;;;;19.23;10.30;;;27.60;75.50;;;;;;4944382;28;20513;-88
2021/09/07 10:47:23;;;;;;;15.80;9.65;;;27.70;74.30;;;;;;4951550;28;20053;-88
2021/09/07 10:49:57;;;;;;;12.60;9.48;;;27.50;75.30;;;;;;4940224;28;20517;-88
2021/09/07 10:52:31;;;;;;;11.50;8.75;;;27.50;74.80;;;;;;4951564;28;20128;-88
2021/09/07 10:55:09;;;;;;;14.93;9.82;;;27.50;75.70;;;;;;4934384;28;20031;-89
2021/09/07 10:57:35;;;;;;;11.52;8.68;;;27.40;74.90;;;;;;4927004;28;20031;-87
2021/09/07 11:00:19;;;;;;;11.07;8.60;;;27.50;74.60;;;;;;4941172;28;20034;-86
2021/09/07 11:02:55;;;;;;;14.52;9.30;;;27.50;72.40;;;;;;4959021;28;20042;-88
2021/09/07 11:05:23;;;;;;;13.93;10.05;;;27.50;73.60;;;;;;4920763;28;20034;-87
2021/09/07 11:07:50;;;;;;;13.88;10.13;;;27.40;74.80;;;;;;4954108;28;20185;-87
2021/09/07 11:10:21;;;;;;;11.55;8.82;;;27.30;74.00;;;;;;4884104;29;20043;-87
2021/09/07 11:12:56;;;;;;;13.73;10.82;;;27.30;74.60;;;;;;4911688;28;20036;-87
2021/09/07 11:15:23;;;;;;;11.25;8.02;;;27.40;74.70;;;;;;4917920;28;20096;-86
2021/09/07 11:17:51;;;;;;;14.80;10.25;;;27.40;75.20;;;;;;4913959;28;20134;-86
2021/09/07 11:20:17;;;;;;;13.18;8.60;;;27.60;74.40;;;;;;4939232;28;20049;-86
2021/09/07 11:22:45;;;;;;;10.52;8.20;;;28.20;71.30;;;;;;4931646;28;20661;-85
2021/09/07 11:25:19;;;;;;;10.38;9.23;;;28.60;70.20;;;;;;4935176;28;20031;-86
2021/09/07 11:27:58;;;;;;;12.75;9.10;;;28.80;70.20;;;;;;4917386;28;20083;-86
2021/09/07 11:30:28;;;;;;;11.77;9.00;;;27.90;71.90;;;;;;4906581;28;20035;-86
2021/09/07 11:33:01;;;;;;;11.63;8.82;;;27.70;73.50;;;;;;4925254;28;20050;-87
2021/09/07 11:35:45;;;;;;;;;;;;;;;;;;;;;
2021/09/07 11:38:16;;;;;;;11.55;8.88;;;28.20;71.70;;;;;;4919422;28;21380;-86
2021/09/07 11:41:03;;;;;;;10.95;8.50;;;27.70;72.70;;;;;;4915700;28;20071;-86
2021/09/07 11:43:35;;;;;;;9.85;7.70;;;28.40;70.60;;;;;;4916231;28;20039;-86
2021/09/07 11:46:14;;;;;;;14.43;10.25;;;28.80;69.70;;;;;;4939083;28;20084;-85
2021/09/07 11:48:46;;;;;;;16.02;10.10;;;28.70;69.40;;;;;;4942642;28;20119;-85
2021/09/07 11:51:16;;;;;;;14.98;9.65;;;28.70;70.70;;;;;;4921788;28;20475;-85
2021/09/07 11:53:42;;;;;;;12.77;8.00;;;28.70;71.50;;;;;;4935910;28;20030;-85
2021/09/07 11:56:28;;;;;;;11.40;8.32;;;28.70;71.00;;;;;;4928704;28;20363;-85
2021/09/07 11:59:19;;;;;;;11.57;9.82;;;30.10;68.40;;;;;;4924991;28;20774;-85
2021/09/07 12:01:46;;;;;;;14.82;8.35;;;29.30;70.10;;;;;;4930355;28;20038;-85
2021/09/07 12:04:15;;;;;;;11.00;8.73;;;29.50;68.40;;;;;;4940095;28;20027;-84
2021/09/07 12:06:45;;;;;;;12.27;8.10;;;30.60;64.70;;;;;;4945293;28;20487;-84
2021/09/07 12:09:21;;;;;;;14.73;9.88;;;29.40;66.90;;;;;;4947105;28;20094;-84
2021/09/07 12:11:49;;;;;;;17.33;8.70;;;28.80;68.10;;;;;;4967020;28;20186;-84
2021/09/07 12:14:18;;;;;;;12.05;8.57;;;28.50;68.10;;;;;;4936671;28;20559;-84
2021/09/07 12:17:04;;;;;;;11.32;9.02;;;28.40;68.20;;;;;;4917868;28;20090;-84
2021/09/07 12:20:11;;;;;;;8.77;7.85;;;28.30;68.90;;;;;;4945627;28;20092;-84
2021/09/07 12:22:40;;;;;;;;;;;28.60;70.40;;;;;;4964280;28;20549;-84
2021/09/07 12:25:18;;;;;;;12.52;7.70;;;28.90;70.50;;;;;;4964747;28;19918;-84
2021/09/07 12:27:54;;;;;;;10.10;9.10;;;29.50;67.00;;;;;;4940391;28;20077;-84
2021/09/07 12:30:39;;;;;;;14.45;9.15;;;29.00;65.50;;;;;;4937969;28;20031;-83
2021/09/07 12:33:17;;;;;;;13.45;8.88;;;28.60;68.70;;;;;;4972576;28;20572;-83
2021/09/07 12:36:04;;;;;;;8.77;7.63;;;28.40;68.50;;;;;;4944813;28;20066;-84
2021/09/07 12:38:31;;;;;;;9.27;7.57;;;28.90;69.40;;;;;;4957776;28;20402;-83
2021/09/07 12:41:05;;;;;;;10.68;8.27;;;29.10;70.00;;;;;;4943440;28;20449;-83
2021/09/07 12:43:37;;;;;;;10.63;8.10;;;29.50;69.50;;;;;;4925254;29;20616;-83
2021/09/07 12:46:08;;;;;;;17.42;8.50;;;29.30;69.30;;;;;;4947083;28;20549;-84
2021/09/07 12:48:42;;;;;;;14.77;9.95;;;29.60;68.40;;;;;;4946534;28;20043;-84